Time;durP1;ratioP1;P1;durP2;ratioP2;P2;SDS_P1;SDS_P2;PMS_P1;PMS_P2;Temp;Humidity;BMP_temperature;BMP_pressure;BME280_temperature;BME280_humidity;BME280_pressure;Samples;Min_cycle;Max_cycle;Signal;HPM_P1;HPM_P2
2022/03/13 00:01:01;;;;;;;9.20;5.53;;;;;;;;;;5113599;28;20453;-71
2022/03/13 00:03:32;;;;;;;10.00;4.77;;;;;;;;;;5112796;28;20545;-70
2022/03/13 00:05:59;;;;;;;7.40;4.47;;;;;;;;;;5113167;28;20506;-70
2022/03/13 00:08:27;;;;;;;11.80;5.30;;;;;;;;;;5113266;28;20539;-70
2022/03/13 00:10:57;;;;;;;7.00;4.13;;;;;;;;;;5113205;28;20506;-70
2022/03/13 00:13:25;;;;;;;6.30;3.70;;;;;;;;;;5112830;28;20456;-70
2022/03/13 00:15:52;;;;;;;6.10;4.13;;;;;;;;;;5113037;28;20867;-70
2022/03/13 00:18:20;;;;;;;5.53;3.63;;;;;;;;;;5113230;28;20884;-70
2022/03/13 00:20:48;;;;;;;7.70;4.30;;;;;;;;;;5113284;28;20461;-70
2022/03/13 00:23:15;;;;;;;6.37;4.57;;;;;;;;;;5113276;28;20450;-70
2022/03/13 00:25:42;;;;;;;12.37;4.07;;;;;;;;;;5112922;28;20457;-70
2022/03/13 00:28:12;;;;;;;7.43;4.57;;;;;;;;;;5113177;28;20511;-70
2022/03/13 00:30:39;;;;;;;9.30;5.10;;;;;;;;;;5112980;28;20883;-70
2022/03/13 00:33:07;;;;;;;10.83;5.77;;;;;;;;;;5113017;28;20453;-70
2022/03/13 00:35:37;;;;;;;9.73;5.13;;;;;;;;;;5112966;28;20510;-70
2022/03/13 00:38:05;;;;;;;10.40;5.80;;;;;;;;;;5112944;28;20469;-70
2022/03/13 00:40:32;;;;;;;11.47;5.63;;;;;;;;;;5113102;28;20457;-70
2022/03/13 00:43:00;;;;;;;13.83;5.60;;;;;;;;;;5112968;28;20510;-70
2022/03/13 00:45:29;;;;;;;5.83;3.40;;;;;;;;;;5112820;28;20445;-70
2022/03/13 00:47:56;;;;;;;7.90;5.10;;;;;;;;;;5112795;28;20494;-70
2022/03/13 00:50:23;;;;;;;8.07;4.93;;;;;;;;;;5112936;28;20449;-70
2022/03/13 00:52:51;;;;;;;5.60;3.17;;;;;;;;;;5112858;28;20457;-70
2022/03/13 00:55:18;;;;;;;5.00;4.30;;;;;;;;;;5112858;28;20825;-69
2022/03/13 00:57:45;;;;;;;13.97;4.97;;;;;;;;;;5112657;28;20473;-70
2022/03/13 01:00:13;;;;;;;7.80;4.40;;;;;;;;;;5112962;28;20450;-70
2022/03/13 01:02:42;;;;;;;7.10;4.43;;;;;;;;;;5112881;28;20453;-70
2022/03/13 01:05:10;;;;;;;6.87;4.13;;;;;;;;;;5112387;28;20450;-70
2022/03/13 01:07:37;;;;;;;8.60;5.10;;;;;;;;;;5112760;28;20970;-70
2022/03/13 01:10:06;;;;;;;8.83;3.80;;;;;;;;;;5112731;28;20494;-70
2022/03/13 01:12:33;;;;;;;8.07;4.70;;;;;;;;;;5112775;28;20458;-70
2022/03/13 01:15:00;;;;;;;9.73;5.00;;;;;;;;;;5112658;28;20937;-70
2022/03/13 01:17:27;;;;;;;6.97;4.23;;;;;;;;;;5112780;28;20871;-70
2022/03/13 01:19:56;;;;;;;4.60;3.60;;;;;;;;;;5112716;28;20442;-69
2022/03/13 01:22:23;;;;;;;16.10;6.53;;;;;;;;;;5112706;28;20464;-70
2022/03/13 01:24:51;;;;;;;6.53;3.07;;;;;;;;;;5112363;28;20453;-70
2022/03/13 01:27:19;;;;;;;7.43;4.10;;;;;;;;;;5115963;28;20465;-70
2022/03/13 01:29:46;;;;;;;4.30;3.70;;;;;;;;;;5116082;28;20548;-70
2022/03/13 01:32:14;;;;;;;8.40;4.20;;;;;;;;;;5116352;28;21010;-70
2022/03/13 01:34:45;;;;;;;6.97;3.93;;;;;;;;;;5115937;28;20449;-70
2022/03/13 01:37:20;;;;;;;9.53;4.63;;;;;;;;;;5116117;27;20465;-70
2022/03/13 01:39:48;;;;;;;6.90;3.80;;;;;;;;;;5116118;28;20441;-70
2022/03/13 01:42:15;;;;;;;6.83;4.60;;;;;;;;;;5116251;27;20453;-70
2022/03/13 01:44:43;;;;;;;9.50;4.80;;;;;;;;;;5115764;28;20464;-70
2022/03/13 01:47:10;;;;;;;8.07;4.80;;;;;;;;;;5115974;28;20564;-70
2022/03/13 01:49:37;;;;;;;4.43;4.03;;;;;;;;;;5115777;28;20477;-70
2022/03/13 01:52:05;;;;;;;6.80;4.67;;;;;;;;;;5115828;28;20450;-71
2022/03/13 01:54:33;;;;;;;5.63;4.10;;;;;;;;;;5115852;28;20445;-70
2022/03/13 01:57:01;;;;;;;8.67;4.50;;;;;;;;;;5115542;28;20473;-70
2022/03/13 01:59:29;;;;;;;7.10;4.40;;;;;;;;;;5115712;28;20442;-69
2022/03/13 02:01:57;;;;;;;9.10;5.20;;;;;;;;;;5115624;28;20503;-69
2022/03/13 02:04:24;;;;;;;6.70;5.40;;;;;;;;;;5114555;28;20445;-69
2022/03/13 02:06:52;;;;;;;9.40;5.93;;;;;;;;;;5115431;28;20446;-70
2022/03/13 02:09:19;;;;;;;9.80;4.80;;;;;;;;;;5115621;27;20944;-70
2022/03/13 02:11:49;;;;;;;8.37;4.63;;;;;;;;;;5115312;28;20442;-70
2022/03/13 02:14:20;;;;;;;9.90;4.70;;;;;;;;;;5115311;28;20479;-70
2022/03/13 02:16:47;;;;;;;7.23;4.27;;;;;;;;;;5115212;28;20577;-71
2022/03/13 02:19:14;;;;;;;8.13;5.07;;;;;;;;;;5115391;28;20437;-70
2022/03/13 02:21:44;;;;;;;11.13;4.40;;;;;;;;;;5115289;28;20824;-70
2022/03/13 02:24:14;;;;;;;10.97;4.50;;;;;;;;;;5115079;28;20500;-70
2022/03/13 02:26:42;;;;;;;9.53;4.33;;;;;;;;;;5115148;27;20454;-70
2022/03/13 02:29:12;;;;;;;8.37;4.63;;;;;;;;;;5115134;28;20885;-70
2022/03/13 02:31:39;;;;;;;6.40;3.93;;;;;;;;;;5115030;28;20445;-70
2022/03/13 02:34:10;;;;;;;7.07;5.00;;;;;;;;;;5114893;28;20774;-70
2022/03/13 02:36:46;;;;;;;3.17;2.30;;;;;;;;;;5114535;28;20453;-70
2022/03/13 02:39:14;;;;;;;10.73;5.23;;;;;;;;;;5115040;28;21029;-70
2022/03/13 02:41:41;;;;;;;6.23;4.33;;;;;;;;;;5114822;28;20454;-71
2022/03/13 02:44:09;;;;;;;9.10;5.27;;;;;;;;;;5114503;28;20456;-70
2022/03/13 02:46:56;;;;;;;6.57;4.30;;;;;;;;;;5114735;28;20454;-70
2022/03/13 02:49:25;;;;;;;7.83;4.97;;;;;;;;;;5114476;28;20493;-70
2022/03/13 02:51:52;;;;;;;6.17;5.00;;;;;;;;;;5114569;28;20449;-70
2022/03/13 02:54:21;;;;;;;4.90;3.57;;;;;;;;;;5114432;28;20799;-70
2022/03/13 02:56:48;;;;;;;7.70;4.77;;;;;;;;;;5114444;28;20470;-70
2022/03/13 02:59:16;;;;;;;6.53;4.43;;;;;;;;;;5114612;28;20449;-70
2022/03/13 03:01:43;;;;;;;6.80;4.77;;;;;;;;;;5114380;28;20980;-69
2022/03/13 03:04:10;;;;;;;8.30;4.07;;;;;;;;;;5113655;28;20823;-69
2022/03/13 03:06:38;;;;;;;7.80;4.87;;;;;;;;;;5114459;28;20453;-69
2022/03/13 03:09:06;;;;;;;5.57;3.43;;;;;;;;;;5114289;28;20481;-70
2022/03/13 03:11:35;;;;;;;5.63;4.20;;;;;;;;;;5114284;28;20456;-69
2022/03/13 03:14:02;;;;;;;7.33;4.40;;;;;;;;;;5114074;28;20457;-70
2022/03/13 03:16:30;;;;;;;6.40;3.90;;;;;;;;;;5114215;28;20453;-70
2022/03/13 03:18:57;;;;;;;17.30;4.33;;;;;;;;;;5114038;28;20534;-70
2022/03/13 03:21:25;;;;;;;9.53;4.87;;;;;;;;;;5114304;28;20456;-70
2022/03/13 03:23:52;;;;;;;4.73;3.73;;;;;;;;;;5113872;28;20450;-70
2022/03/13 03:26:19;;;;;;;8.63;5.07;;;;;;;;;;5114080;28;20442;-70
2022/03/13 03:28:47;;;;;;;7.47;4.83;;;;;;;;;;5113677;28;20997;-70
2022/03/13 03:31:14;;;;;;;8.47;4.50;;;;;;;;;;5114025;28;20453;-70
2022/03/13 03:33:41;;;;;;;6.93;3.53;;;;;;;;;;5113700;28;20461;-70
2022/03/13 03:36:09;;;;;;;6.27;4.20;;;;;;;;;;5113847;28;20453;-70
2022/03/13 03:38:36;;;;;;;5.93;4.47;;;;;;;;;;5113771;28;20465;-70
2022/03/13 03:41:03;;;;;;;11.90;5.13;;;;;;;;;;5113730;28;20918;-70
2022/03/13 03:43:30;;;;;;;6.30;3.97;;;;;;;;;;5113688;28;20450;-70
2022/03/13 03:45:58;;;;;;;7.03;4.10;;;;;;;;;;5113644;28;21000;-69
2022/03/13 03:48:26;;;;;;;5.43;4.00;;;;;;;;;;5112777;28;20480;-70
2022/03/13 03:50:53;;;;;;;9.53;5.50;;;;;;;;;;5113441;28;20492;-70
2022/03/13 03:53:20;;;;;;;6.00;3.80;;;;;;;;;;5113666;28;20450;-70
2022/03/13 03:55:47;;;;;;;7.23;3.60;;;;;;;;;;5113267;28;20445;-70
2022/03/13 03:58:14;;;;;;;8.20;5.40;;;;;;;;;;5113473;28;20561;-70
2022/03/13 04:00:41;;;;;;;6.40;4.10;;;;;;;;;;5113640;28;20441;-70
2022/03/13 04:03:09;;;;;;;9.63;4.70;;;;;;;;;;5113090;28;20965;-69
2022/03/13 04:05:36;;;;;;;6.17;4.30;;;;;;;;;;5112970;28;20449;-70
2022/03/13 04:08:04;;;;;;;3.83;2.60;;;;;;;;;;5113429;28;20473;-70
2022/03/13 04:10:31;;;;;;;12.90;5.17;;;;;;;;;;5113442;28;20474;-70
2022/03/13 04:12:58;;;;;;;5.67;4.10;;;;;;;;;;5113356;28;20842;-70
2022/03/13 04:15:25;;;;;;;6.93;4.17;;;;;;;;;;5113121;28;20453;-69
2022/03/13 04:17:55;;;;;;;7.60;4.40;;;;;;;;;;5113088;28;20831;-69
2022/03/13 04:20:24;;;;;;;6.23;4.80;;;;;;;;;;5113193;28;20456;-69
2022/03/13 04:22:52;;;;;;;7.37;4.20;;;;;;;;;;5113049;28;20793;-70
2022/03/13 04:25:19;;;;;;;7.90;4.60;;;;;;;;;;5113024;28;20481;-70
2022/03/13 04:27:46;;;;;;;7.40;4.73;;;;;;;;;;5113148;28;20839;-70
2022/03/13 04:30:14;;;;;;;9.97;5.50;;;;;;;;;;5113051;28;20482;-70
2022/03/13 04:32:42;;;;;;;9.83;5.33;;;;;;;;;;5113056;28;20458;-70
2022/03/13 04:35:09;;;;;;;7.17;4.13;;;;;;;;;;5113098;28;20462;-70
2022/03/13 04:37:38;;;;;;;7.70;5.60;;;;;;;;;;5112982;28;20473;-70
2022/03/13 04:40:05;;;;;;;8.27;5.77;;;;;;;;;;5113230;28;20449;-70
2022/03/13 04:42:32;;;;;;;7.00;3.97;;;;;;;;;;5113151;28;20450;-70
2022/03/13 04:44:59;;;;;;;11.10;6.97;;;;;;;;;;5112768;28;20456;-70
2022/03/13 04:47:31;;;;;;;8.93;4.27;;;;;;;;;;5112839;28;20565;-70
2022/03/13 04:49:58;;;;;;;7.63;4.73;;;;;;;;;;5112913;28;20481;-70
2022/03/13 04:52:25;;;;;;;7.13;3.87;;;;;;;;;;5113036;28;20452;-70
2022/03/13 04:54:53;;;;;;;6.73;4.33;;;;;;;;;;5112772;28;20449;-69
2022/03/13 04:57:21;;;;;;;9.00;5.17;;;;;;;;;;5112868;28;20473;-70
2022/03/13 04:59:48;;;;;;;15.00;5.43;;;;;;;;;;5114143;28;20993;-70
2022/03/13 05:02:15;;;;;;;7.70;4.40;;;;;;;;;;5117062;28;20461;-70
2022/03/13 05:04:43;;;;;;;7.03;4.50;;;;;;;;;;5115950;28;20453;-70
2022/03/13 05:07:10;;;;;;;8.60;5.90;;;;;;;;;;5116711;28;20477;-70
2022/03/13 05:09:38;;;;;;;10.60;5.23;;;;;;;;;;5116592;28;20866;-71
2022/03/13 05:12:09;;;;;;;8.20;4.20;;;;;;;;;;5116645;28;20453;-70
2022/03/13 05:14:36;;;;;;;5.87;4.40;;;;;;;;;;5116493;28;20469;-70
2022/03/13 05:17:04;;;;;;;5.63;4.20;;;;;;;;;;5116550;28;20466;-70
2022/03/13 05:19:31;;;;;;;8.10;4.60;;;;;;;;;;5116589;28;20973;-70
2022/03/13 05:21:58;;;;;;;5.87;4.00;;;;;;;;;;5116464;28;20453;-70
2022/03/13 05:24:25;;;;;;;10.70;5.00;;;;;;;;;;5116360;28;20820;-70
2022/03/13 05:26:52;;;;;;;7.03;4.87;;;;;;;;;;5116397;28;20445;-70
2022/03/13 05:29:21;;;;;;;8.10;4.90;;;;;;;;;;5116450;28;20445;-70
2022/03/13 05:31:48;;;;;;;8.80;4.87;;;;;;;;;;5116226;28;20450;-70
2022/03/13 05:34:15;;;;;;;9.93;5.20;;;;;;;;;;5116099;28;20454;-70
2022/03/13 05:36:42;;;;;;;8.33;4.67;;;;;;;;;;5116331;28;20458;-71
2022/03/13 05:39:10;;;;;;;6.60;4.50;;;;;;;;;;5116235;28;20817;-71
2022/03/13 05:41:39;;;;;;;6.57;3.37;;;;;;;;;;5116114;28;20453;-70
2022/03/13 05:44:07;;;;;;;6.90;5.47;;;;;;;;;;5115856;28;20449;-70
2022/03/13 05:46:36;;;;;;;12.50;4.90;;;;;;;;;;5116117;28;20853;-70
2022/03/13 05:49:03;;;;;;;12.20;4.50;;;;;;;;;;5115962;28;20453;-69
2022/03/13 05:51:35;;;;;;;7.97;3.90;;;;;;;;;;5115951;28;20851;-70
2022/03/13 05:54:02;;;;;;;9.73;5.13;;;;;;;;;;5115673;28;20502;-69
2022/03/13 05:56:29;;;;;;;4.43;4.03;;;;;;;;;;5115682;27;20455;-70
2022/03/13 05:58:56;;;;;;;8.27;5.30;;;;;;;;;;5115639;28;20869;-69
2022/03/13 06:01:23;;;;;;;10.80;4.37;;;;;;;;;;5115773;28;20457;-69
2022/03/13 06:03:53;;;;;;;6.40;4.47;;;;;;;;;;5114772;28;20456;-70
2022/03/13 06:06:20;;;;;;;6.90;4.27;;;;;;;;;;5115700;28;20450;-70
2022/03/13 06:08:47;;;;;;;13.10;4.80;;;;;;;;;;5115488;28;20476;-69
2022/03/13 06:11:14;;;;;;;5.37;3.20;;;;;;;;;;5114709;28;20482;-70
2022/03/13 06:13:42;;;;;;;12.20;6.17;;;;;;;;;;5115342;28;20457;-70
2022/03/13 06:16:09;;;;;;;8.60;4.60;;;;;;;;;;5115629;28;20866;-69
2022/03/13 06:18:37;;;;;;;10.63;5.90;;;;;;;;;;5115044;28;20476;-70
2022/03/13 06:21:05;;;;;;;17.23;5.03;;;;;;;;;;5115130;28;20442;-70
2022/03/13 06:23:33;;;;;;;8.27;6.40;;;;;;;;;;5115001;28;20515;-70
2022/03/13 06:26:00;;;;;;;8.40;5.33;;;;;;;;;;5115157;28;20812;-70
2022/03/13 06:28:28;;;;;;;11.67;4.80;;;;;;;;;;5115175;28;20838;-69
2022/03/13 06:30:55;;;;;;;12.07;6.50;;;;;;;;;;5115011;28;20489;-70
2022/03/13 06:33:23;;;;;;;10.77;5.60;;;;;;;;;;5115020;28;20496;-70
2022/03/13 06:35:50;;;;;;;8.53;5.33;;;;;;;;;;5114928;28;20446;-70
2022/03/13 06:38:18;;;;;;;7.13;5.10;;;;;;;;;;5115052;27;20494;-70
2022/03/13 06:40:46;;;;;;;11.37;6.37;;;;;;;;;;5114899;28;20825;-71
2022/03/13 06:43:13;;;;;;;13.50;6.70;;;;;;;;;;5114842;27;20453;-70
2022/03/13 06:45:40;;;;;;;8.10;6.17;;;;;;;;;;5114557;28;20454;-70
2022/03/13 06:48:07;;;;;;;14.53;7.60;;;;;;;;;;5114788;28;20482;-70
2022/03/13 06:50:34;;;;;;;10.47;5.93;;;;;;;;;;5114772;28;20490;-70
2022/03/13 06:53:01;;;;;;;11.10;6.17;;;;;;;;;;5114707;28;20457;-70
2022/03/13 06:55:30;;;;;;;11.60;8.17;;;;;;;;;;5114663;28;20472;-70
2022/03/13 06:57:57;;;;;;;10.00;7.00;;;;;;;;;;5114736;28;20469;-70
2022/03/13 07:00:24;;;;;;;8.70;6.50;;;;;;;;;;5114612;28;20820;-71
2022/03/13 07:02:51;;;;;;;7.77;6.03;;;;;;;;;;5114025;28;20445;-71
2022/03/13 07:05:20;;;;;;;9.10;7.13;;;;;;;;;;5114437;28;20438;-71
2022/03/13 07:07:47;;;;;;;11.10;7.37;;;;;;;;;;5114305;28;20825;-71
2022/03/13 07:10:14;;;;;;;7.10;6.00;;;;;;;;;;5114411;28;20857;-70
2022/03/13 07:12:44;;;;;;;8.83;6.87;;;;;;;;;;5114221;28;20449;-70
2022/03/13 07:15:14;;;;;;;8.83;6.93;;;;;;;;;;5114152;28;20456;-70
2022/03/13 07:17:42;;;;;;;7.50;6.03;;;;;;;;;;5111414;27;20485;-70
2022/03/13 07:20:09;;;;;;;12.67;7.43;;;;;;;;;;5112812;27;20498;-71
2022/03/13 07:22:36;;;;;;;13.00;7.30;;;;;;;;;;5112697;28;20865;-70
2022/03/13 07:25:03;;;;;;;10.90;8.20;;;;;;;;;;5112350;28;20450;-70
2022/03/13 07:27:31;;;;;;;10.87;7.27;;;;;;;;;;5112543;28;20469;-70
2022/03/13 07:29:59;;;;;;;10.40;6.50;;;;;;;;;;5112567;27;20535;-70
2022/03/13 07:32:26;;;;;;;10.73;6.80;;;;;;;;;;5112296;28;21001;-70
2022/03/13 07:34:53;;;;;;;8.33;6.50;;;;;;;;;;5110567;28;20453;-70
2022/03/13 07:37:20;;;;;;;15.13;7.80;;;;;;;;;;5111405;28;20466;-71
2022/03/13 07:39:48;;;;;;;23.73;14.23;;;;;;;;;;5112198;28;20548;-70
2022/03/13 07:42:16;;;;;;;9.00;6.30;;;;;;;;;;5112561;28;20877;-70
2022/03/13 07:44:43;;;;;;;9.27;6.90;;;;;;;;;;5112182;28;20449;-71
2022/03/13 07:47:12;;;;;;;9.23;7.07;;;;;;;;;;5112344;28;20470;-71
2022/03/13 07:49:39;;;;;;;12.27;7.87;;;;;;;;;;5112162;28;20494;-70
2022/03/13 07:52:07;;;;;;;13.93;6.97;;;;;;;;;;5112452;28;20486;-70
2022/03/13 07:54:35;;;;;;;11.23;6.43;;;;;;;;;;5112191;28;20470;-71
2022/03/13 07:57:02;;;;;;;11.33;6.60;;;;;;;;;;5112103;28;20990;-70
2022/03/13 07:59:29;;;;;;;15.83;7.87;;;;;;;;;;5112361;28;20477;-70
2022/03/13 08:01:56;;;;;;;9.30;6.90;;;;;;;;;;5112152;28;20445;-70
2022/03/13 08:04:26;;;;;;;11.03;6.70;;;;;;;;;;5107622;28;20446;-71
2022/03/13 08:06:53;;;;;;;10.93;6.93;;;;;;;;;;5110748;28;20449;-71
2022/03/13 08:09:20;;;;;;;9.87;6.57;;;;;;;;;;5111808;28;20450;-70
2022/03/13 08:11:48;;;;;;;8.80;6.50;;;;;;;;;;5111475;28;20481;-71
2022/03/13 08:14:15;;;;;;;10.17;7.43;;;;;;;;;;5110758;28;20482;-71
2022/03/13 08:16:42;;;;;;;7.57;6.03;;;;;;;;;;5111733;28;20834;-71
2022/03/13 08:19:10;;;;;;;9.50;6.20;;;;;;;;;;5111789;28;20445;-71
2022/03/13 08:21:39;;;;;;;12.17;8.47;;;;;;;;;;5111765;28;20549;-71
2022/03/13 08:24:07;;;;;;;9.13;6.27;;;;;;;;;;5111644;28;20449;-71
2022/03/13 08:26:35;;;;;;;11.13;7.40;;;;;;;;;;5111949;28;20965;-71
2022/03/13 08:29:02;;;;;;;7.50;6.00;;;;;;;;;;5111386;28;20512;-71
2022/03/13 08:31:29;;;;;;;9.80;6.43;;;;;;;;;;5111758;28;20898;-71
2022/03/13 08:33:56;;;;;;;11.07;7.17;;;;;;;;;;5111523;28;20442;-71
2022/03/13 08:36:23;;;;;;;8.67;6.87;;;;;;;;;;5115938;28;20445;-70
2022/03/13 08:38:52;;;;;;;9.97;6.93;;;;;;;;;;5115744;28;20480;-71
2022/03/13 08:41:19;;;;;;;7.63;6.30;;;;;;;;;;5115743;28;20446;-71
2022/03/13 08:43:46;;;;;;;11.40;9.03;;;;;;;;;;5115438;28;20454;-71
2022/03/13 08:46:13;;;;;;;9.07;7.47;;;;;;;;;;5115797;28;20449;-71
2022/03/13 08:48:40;;;;;;;10.30;7.20;;;;;;;;;;5115326;28;20504;-71
2022/03/13 08:51:08;;;;;;;11.50;7.43;;;;;;;;;;5115864;28;20485;-71
2022/03/13 08:53:35;;;;;;;9.37;7.30;;;;;;;;;;5115458;28;20450;-71
2022/03/13 08:56:04;;;;;;;13.40;7.57;;;;;;;;;;5115309;28;20449;-71
2022/03/13 08:58:31;;;;;;;9.83;7.17;;;;;;;;;;5115517;28;20819;-71
2022/03/13 09:00:58;;;;;;;12.70;7.30;;;;;;;;;;5115452;28;20450;-71
2022/03/13 09:03:26;;;;;;;7.80;7.00;;;;;;;;;;5114859;28;20445;-72
2022/03/13 09:05:54;;;;;;;7.90;6.67;;;;;;;;;;5115152;28;20985;-71
2022/03/13 09:08:22;;;;;;;10.20;7.13;;;;;;;;;;5115170;28;20534;-71
2022/03/13 09:10:49;;;;;;;8.23;6.40;;;;;;;;;;5115100;28;20886;-72
2022/03/13 09:13:17;;;;;;;9.10;7.43;;;;;;;;;;5115347;28;20453;-71
2022/03/13 09:15:44;;;;;;;9.73;7.30;;;;;;;;;;5114687;28;20453;-72
2022/03/13 09:18:13;;;;;;;12.30;7.60;;;;;;;;;;5115060;28;20473;-71
2022/03/13 09:20:40;;;;;;;10.33;7.37;;;;;;;;;;5115093;28;20457;-71
2022/03/13 09:23:07;;;;;;;12.80;7.70;;;;;;;;;;5115288;28;20491;-71
2022/03/13 09:25:35;;;;;;;9.57;7.80;;;;;;;;;;5114928;28;20972;-71
2022/03/13 09:28:02;;;;;;;8.73;7.27;;;;;;;;;;5114701;28;20473;-71
2022/03/13 09:30:31;;;;;;;10.93;7.20;;;;;;;;;;5114920;28;20819;-71
2022/03/13 09:32:58;;;;;;;8.53;7.20;;;;;;;;;;5114701;28;21046;-71
2022/03/13 09:35:25;;;;;;;9.30;7.07;;;;;;;;;;5114624;28;20449;-71
2022/03/13 09:37:52;;;;;;;9.53;7.07;;;;;;;;;;5114412;28;20520;-71
2022/03/13 09:40:20;;;;;;;9.60;7.37;;;;;;;;;;5114624;28;20449;-72
2022/03/13 09:42:48;;;;;;;8.73;6.87;;;;;;;;;;5114465;28;20445;-71
2022/03/13 09:45:16;;;;;;;9.07;6.97;;;;;;;;;;5114548;28;20943;-71
2022/03/13 09:47:44;;;;;;;9.60;7.30;;;;;;;;;;5113154;28;20469;-73
2022/03/13 09:50:12;;;;;;;11.33;7.20;;;;;;;;;;5114858;27;20452;-72
2022/03/13 09:52:40;;;;;;;10.33;8.60;;;;;;;;;;5114182;28;20496;-71
2022/03/13 09:55:08;;;;;;;7.80;7.10;;;;;;;;;;5114152;28;20524;-71
2022/03/13 09:57:36;;;;;;;8.87;7.03;;;;;;;;;;5114280;28;20996;-71
2022/03/13 10:00:05;;;;;;;10.80;8.60;;;;;;;;;;5114448;28;20962;-71
2022/03/13 10:02:37;;;;;;;8.83;6.80;;;;;;;;;;5114884;28;20814;-71
2022/03/13 10:05:08;;;;;;;9.63;7.53;;;;;;;;;;5114612;28;20507;-71
2022/03/13 10:07:51;;;;;;;9.83;7.93;;;;;;;;;;5114481;28;20589;-71
2022/03/13 10:10:18;;;;;;;21.53;15.80;;;;;;;;;;5114551;28;20440;-70
2022/03/13 10:12:46;;;;;;;15.23;9.20;;;;;;;;;;5114420;28;20489;-71
2022/03/13 10:15:13;;;;;;;14.50;8.83;;;;;;;;;;5114606;28;20445;-71
2022/03/13 10:17:41;;;;;;;10.30;8.53;;;;;;;;;;5114915;28;20896;-71
2022/03/13 10:20:17;;;;;;;9.40;7.40;;;;;;;;;;5114429;28;20802;-71
2022/03/13 10:22:45;;;;;;;10.60;7.73;;;;;;;;;;5115309;28;20433;-71
2022/03/13 10:25:14;;;;;;;12.17;8.80;;;;;;;;;;5115449;28;20441;-71
2022/03/13 10:27:43;;;;;;;12.30;9.43;;;;;;;;;;5115677;28;20469;-71
2022/03/13 10:30:11;;;;;;;11.80;9.40;;;;;;;;;;5115729;28;20587;-71
2022/03/13 10:32:38;;;;;;;11.73;9.03;;;;;;;;;;5115221;28;20530;-71
2022/03/13 10:35:06;;;;;;;11.00;8.40;;;;;;;;;;5115590;28;20449;-71
2022/03/13 10:37:37;;;;;;;13.40;9.17;;;;;;;;;;5115474;27;20478;-71
2022/03/13 10:40:14;;;;;;;10.17;7.70;;;;;;;;;;5115622;28;20903;-71
2022/03/13 10:42:43;;;;;;;13.03;9.00;;;;;;;;;;5115495;28;20781;-71
2022/03/13 10:45:10;;;;;;;10.07;7.53;;;;;;;;;;5115246;28;20453;-71
2022/03/13 10:47:38;;;;;;;10.17;7.77;;;;;;;;;;5114778;28;20481;-71
2022/03/13 10:50:06;;;;;;;9.93;7.90;;;;;;;;;;5115248;28;20454;-72
2022/03/13 10:52:36;;;;;;;12.40;8.27;;;;;;;;;;5114774;28;20473;-71
2022/03/13 10:55:18;;;;;;;10.33;8.13;;;;;;;;;;5114861;28;20486;-72
2022/03/13 10:57:49;;;;;;;11.30;8.83;;;;;;;;;;5114826;28;20530;-72
2022/03/13 11:00:17;;;;;;;14.10;9.30;;;;;;;;;;5114769;28;20446;-72
2022/03/13 11:02:44;;;;;;;10.07;8.20;;;;;;;;;;5114767;28;20499;-71
2022/03/13 11:05:11;;;;;;;11.13;8.67;;;;;;;;;;5115007;28;20453;-72
2022/03/13 11:07:38;;;;;;;11.73;8.10;;;;;;;;;;5114580;28;20465;-72
2022/03/13 11:10:07;;;;;;;10.00;8.53;;;;;;;;;;5114877;27;20438;-71
2022/03/13 11:12:35;;;;;;;9.20;8.30;;;;;;;;;;5114771;28;20981;-72
2022/03/13 11:15:03;;;;;;;10.07;7.40;;;;;;;;;;5114782;28;20542;-72
2022/03/13 11:17:32;;;;;;;14.80;9.37;;;;;;;;;;5114650;28;20473;-72
2022/03/13 11:20:00;;;;;;;11.73;8.40;;;;;;;;;;5114711;28;20822;-72
2022/03/13 11:22:28;;;;;;;8.73;7.83;;;;;;;;;;5114751;28;20457;-72
2022/03/13 11:24:57;;;;;;;10.90;8.23;;;;;;;;;;5114326;28;20457;-72
2022/03/13 11:27:26;;;;;;;15.60;8.57;;;;;;;;;;5114494;28;20989;-72
2022/03/13 11:29:55;;;;;;;9.63;8.60;;;;;;;;;;5114188;28;20549;-71
2022/03/13 11:32:29;;;;;;;12.03;8.70;;;;;;;;;;5114060;28;20477;-72
2022/03/13 11:35:20;;;;;;;9.80;8.60;;;;;;;;;;5114497;28;20455;-72
2022/03/13 11:37:48;;;;;;;10.60;8.53;;;;;;;;;;5114675;28;20480;-72
2022/03/13 11:40:16;;;;;;;10.20;8.57;;;;;;;;;;5114364;28;20509;-72
2022/03/13 11:42:47;;;;;;;9.20;8.30;;;;;;;;;;5114175;28;20469;-72
2022/03/13 11:45:34;;;;;;;11.97;10.17;;;;;;;;;;5114255;28;20946;-72
2022/03/13 11:48:19;;;;;;;19.53;14.10;;;;;;;;;;5113920;28;21008;-72
2022/03/13 11:50:47;;;;;;;9.60;8.60;;;;;;;;;;5102426;28;20457;-72
2022/03/13 11:53:18;;;;;;;18.07;15.40;;;;;;;;;;5114158;28;20827;-72
2022/03/13 11:56:04;;;;;;;11.37;10.17;;;;;;;;;;5113878;28;20475;-72
2022/03/13 11:58:41;;;;;;;15.47;12.10;;;;;;;;;;5114080;28;20829;-72
2022/03/13 12:01:10;;;;;;;9.63;8.23;;;;;;;;;;5114011;28;20895;-72
2022/03/13 12:03:37;;;;;;;11.20;8.17;;;;;;;;;;5114102;28;20810;-72
2022/03/13 12:06:05;;;;;;;11.30;8.60;;;;;;;;;;5113753;28;20445;-72
2022/03/13 12:09:05;;;;;;;10.23;8.57;;;;;;;;;;5113661;28;20808;-72
2022/03/13 12:11:38;;;;;;;11.97;8.73;;;;;;;;;;5050907;28;20440;-72
2022/03/13 12:14:07;;;;;;;10.60;7.87;;;;;;;;;;5050909;28;20476;-73
2022/03/13 12:16:36;;;;;;;11.37;8.40;;;;;;;;;;5082421;28;20457;-73
2022/03/13 12:19:03;;;;;;;10.03;8.10;;;;;;;;;;5113393;28;20568;-72
2022/03/13 12:21:31;;;;;;;11.90;8.97;;;;;;;;;;5113463;28;20507;-72
2022/03/13 12:24:12;;;;;;;13.37;8.97;;;;;;;;;;5113459;28;20453;-72
2022/03/13 12:26:40;;;;;;;9.47;8.47;;;;;;;;;;5113739;28;20437;-72
2022/03/13 12:29:07;;;;;;;11.80;8.83;;;;;;;;;;5113805;28;20477;-72
2022/03/13 12:31:41;;;;;;;9.13;8.23;;;;;;;;;;5113637;28;20497;-72
2022/03/13 12:34:08;;;;;;;10.33;8.53;;;;;;;;;;5113748;28;20444;-73
2022/03/13 12:36:36;;;;;;;8.63;7.73;;;;;;;;;;5113460;28;20506;-73
2022/03/13 12:39:04;;;;;;;8.63;7.37;;;;;;;;;;5113588;28;20564;-73
2022/03/13 12:41:32;;;;;;;12.77;8.33;;;;;;;;;;5113232;28;20506;-73
2022/03/13 12:44:04;;;;;;;9.40;8.50;;;;;;;;;;5113381;28;20468;-72
2022/03/13 12:46:32;;;;;;;11.33;9.97;;;;;;;;;;5113325;28;20443;-73
2022/03/13 12:49:02;;;;;;;16.77;15.07;;;;;;;;;;5113133;28;20538;-72
2022/03/13 12:51:34;;;;;;;11.30;8.23;;;;;;;;;;5113221;28;20456;-73
2022/03/13 12:54:02;;;;;;;11.03;9.90;;;;;;;;;;5113556;28;20546;-73
2022/03/13 12:56:30;;;;;;;9.23;8.23;;;;;;;;;;5113481;28;20821;-73
2022/03/13 12:58:58;;;;;;;11.43;8.60;;;;;;;;;;5113477;28;20580;-73
2022/03/13 13:01:25;;;;;;;11.13;8.90;;;;;;;;;;5113214;28;20445;-73
2022/03/13 13:03:52;;;;;;;18.20;9.20;;;;;;;;;;5113817;28;20588;-72
2022/03/13 13:06:35;;;;;;;10.83;9.03;;;;;;;;;;5113534;28;20444;-72
2022/03/13 13:09:03;;;;;;;9.00;7.43;;;;;;;;;;5113306;28;20473;-72
2022/03/13 13:11:31;;;;;;;10.87;7.60;;;;;;;;;;5113059;28;20469;-72
2022/03/13 13:13:58;;;;;;;12.93;9.00;;;;;;;;;;5112986;28;20481;-72
2022/03/13 13:16:28;;;;;;;13.20;8.40;;;;;;;;;;5113033;28;20450;-72
2022/03/13 13:18:55;;;;;;;12.90;8.60;;;;;;;;;;5112954;28;20497;-72
2022/03/13 13:21:34;;;;;;;11.73;8.53;;;;;;;;;;5114945;28;20453;-72
2022/03/13 13:24:01;;;;;;;10.07;7.70;;;;;;;;;;5117208;28;20426;-72
2022/03/13 13:26:42;;;;;;;11.70;7.40;;;;;;;;;;5116627;27;20452;-72
2022/03/13 13:29:09;;;;;;;10.90;8.33;;;;;;;;;;5116974;28;20488;-72
2022/03/13 13:31:36;;;;;;;11.17;8.30;;;;;;;;;;5116950;28;20851;-72
2022/03/13 13:34:16;;;;;;;13.03;8.20;;;;;;;;;;5116573;27;20863;-72
2022/03/13 13:36:44;;;;;;;12.90;7.97;;;;;;;;;;5116636;28;20861;-72
2022/03/13 13:39:11;;;;;;;13.67;8.13;;;;;;;;;;5116358;28;20446;-71
2022/03/13 13:41:40;;;;;;;10.37;8.20;;;;;;;;;;5116562;28;20552;-71
2022/03/13 13:44:07;;;;;;;9.57;7.33;;;;;;;;;;5116567;28;20503;-71
2022/03/13 13:46:34;;;;;;;11.20;8.93;;;;;;;;;;5116483;28;20461;-71
2022/03/13 13:49:01;;;;;;;12.90;8.17;;;;;;;;;;5115927;28;20481;-72
2022/03/13 13:51:34;;;;;;;10.07;8.80;;;;;;;;;;5116411;28;20810;-71
2022/03/13 13:54:05;;;;;;;10.73;7.90;;;;;;;;;;5116310;28;21009;-71
2022/03/13 13:56:34;;;;;;;8.83;7.63;;;;;;;;;;5116427;28;20444;-72
2022/03/13 13:59:14;;;;;;;9.80;8.50;;;;;;;;;;5116194;28;20469;-71
2022/03/13 14:01:42;;;;;;;12.63;8.43;;;;;;;;;;5116328;28;20942;-70
2022/03/13 14:04:09;;;;;;;9.53;6.53;;;;;;;;;;5116184;28;20453;-71
2022/03/13 14:06:37;;;;;;;15.03;7.57;;;;;;;;;;5116245;28;20445;-71
2022/03/13 14:09:06;;;;;;;13.13;7.20;;;;;;;;;;5116094;28;20453;-71
2022/03/13 14:11:33;;;;;;;16.60;8.43;;;;;;;;;;5116033;28;20450;-71
2022/03/13 14:14:02;;;;;;;15.40;8.23;;;;;;;;;;5115934;28;20485;-72
2022/03/13 14:16:29;;;;;;;13.20;8.00;;;;;;;;;;5115687;28;20549;-71
2022/03/13 14:18:56;;;;;;;11.73;8.43;;;;;;;;;;5115882;28;20949;-71
2022/03/13 14:21:23;;;;;;;10.40;8.50;;;;;;;;;;5115942;27;20822;-72
2022/03/13 14:23:51;;;;;;;10.53;8.23;;;;;;;;;;5115797;28;20810;-71
2022/03/13 14:26:19;;;;;;;12.50;8.57;;;;;;;;;;5115735;27;20449;-72
2022/03/13 14:28:46;;;;;;;13.27;8.50;;;;;;;;;;5115599;28;20470;-71
2022/03/13 14:31:14;;;;;;;11.10;8.30;;;;;;;;;;5115556;28;20454;-71
2022/03/13 14:33:42;;;;;;;9.97;7.20;;;;;;;;;;5114829;28;20590;-71
2022/03/13 14:36:10;;;;;;;11.00;8.63;;;;;;;;;;5115488;28;20456;-72
2022/03/13 14:38:37;;;;;;;12.17;9.53;;;;;;;;;;5115420;28;20974;-71
2022/03/13 14:41:04;;;;;;;10.43;7.80;;;;;;;;;;5115377;27;20460;-71
2022/03/13 14:43:34;;;;;;;12.90;8.23;;;;;;;;;;5115476;28;20910;-71